createdAt,value
2023-04-04T00:00:44.488Z,65.47
2023-04-04T00:03:17.210Z,65.45
2023-04-04T00:05:48.291Z,65.33
2023-04-04T00:08:18.253Z,65.51
2023-04-04T00:10:48.274Z,65.43
2023-04-04T00:13:18.514Z,65.62
2023-04-04T00:15:48.655Z,65.78
2023-04-04T00:18:22.005Z,65.81
2023-04-04T00:20:51.874Z,66.05
2023-04-04T00:23:21.735Z,66.12
2023-04-04T00:25:55.190Z,66.47
2023-04-04T00:28:25.280Z,66.42
2023-04-04T00:30:55.274Z,66.46
2023-04-04T00:33:28.075Z,66.70
2023-04-04T00:35:58.259Z,66.95
2023-04-04T00:38:29.901Z,66.62
2023-04-04T00:41:00.701Z,67.15
2023-04-04T00:43:31.030Z,66.89
2023-04-04T00:46:01.158Z,67.18
2023-04-04T00:48:34.729Z,67.42
2023-04-04T00:51:04.682Z,67.58
2023-04-04T00:53:34.930Z,67.71
2023-04-04T00:56:05.215Z,67.67
2023-04-04T00:58:35.495Z,67.63
2023-04-04T01:01:05.512Z,68.18
2023-04-04T01:03:39.909Z,68.42
2023-04-04T01:06:11.509Z,68.37
2023-04-04T01:08:42.667Z,68.27
2023-04-04T01:11:13.651Z,68.26
2023-04-04T01:13:43.707Z,67.90
2023-04-04T01:16:13.724Z,68.09
2023-04-04T01:18:47.510Z,68.19
2023-04-04T01:21:22.033Z,68.56
2023-04-04T01:24:00.145Z,68.40
2023-04-04T01:26:33.550Z,68.34
2023-04-04T01:29:03.493Z,68.48
2023-04-04T01:31:40.847Z,68.83
2023-04-04T01:34:18.999Z,68.66
2023-04-04T01:36:55.040Z,68.82
2023-04-04T01:39:30.986Z,68.87
2023-04-04T01:42:06.371Z,68.90
2023-04-04T01:44:36.642Z,68.68
2023-04-04T01:47:09.889Z,69.06
2023-04-04T01:49:39.901Z,69.19
2023-04-04T01:52:10.170Z,69.06
2023-04-04T01:54:40.085Z,69.16
2023-04-04T01:57:13.109Z,69.33
2023-04-04T01:59:43.101Z,69.54
2023-04-04T02:02:13.530Z,69.36
2023-04-04T02:04:43.552Z,69.77
2023-04-04T02:07:13.558Z,69.81
2023-04-04T02:09:43.814Z,70.01
2023-04-04T02:12:16.440Z,70.29
2023-04-04T02:14:46.749Z,70.23
2023-04-04T02:17:17.130Z,69.93
2023-04-04T02:19:47.176Z,70.02
2023-04-04T02:22:17.145Z,69.82
2023-04-04T02:24:47.027Z,69.63
2023-04-04T02:27:19.648Z,70.25
2023-04-04T02:29:49.496Z,69.97
2023-04-04T02:32:19.656Z,69.85
2023-04-04T02:34:49.503Z,70.11
2023-04-04T02:37:19.481Z,70.09
2023-04-04T02:39:49.669Z,70.17
2023-04-04T02:42:22.311Z,70.39
2023-04-04T02:44:52.301Z,70.26
2023-04-04T02:47:23.387Z,70.30
2023-04-04T02:49:53.376Z,70.64
2023-04-04T02:52:24.322Z,70.65
2023-04-04T02:54:54.688Z,70.78
2023-04-04T02:57:27.564Z,71.35
2023-04-04T02:59:57.567Z,71.13
2023-04-04T03:02:28.066Z,71.07
2023-04-04T03:04:58.184Z,71.00
2023-04-04T03:07:28.081Z,71.24
2023-04-04T03:10:02.548Z,71.31
2023-04-04T03:12:34.966Z,71.63
2023-04-04T03:15:05.695Z,71.48
2023-04-04T03:17:35.583Z,71.43
2023-04-04T03:20:05.467Z,71.83
2023-04-04T03:22:35.488Z,71.75
2023-04-04T03:25:05.396Z,72.11
2023-04-04T03:27:40.083Z,72.02
2023-04-04T03:30:11.697Z,71.72
2023-04-04T03:32:42.383Z,71.80
2023-04-04T03:35:13.279Z,71.72
2023-04-04T03:37:43.472Z,71.75
2023-04-04T03:40:14.574Z,71.66
2023-04-04T03:42:47.387Z,72.05
2023-04-04T03:45:17.400Z,72.10
2023-04-04T03:47:47.531Z,71.84
2023-04-04T03:50:17.585Z,71.80
2023-04-04T03:52:47.732Z,72.00
2023-04-04T03:55:17.918Z,72.07
2023-04-04T03:57:50.531Z,72.22
2023-04-04T04:00:20.909Z,72.34
2023-04-04T04:02:50.865Z,72.25
2023-04-04T04:05:20.909Z,72.30
2023-04-04T04:07:50.757Z,72.56
2023-04-04T04:10:20.805Z,72.57
2023-04-04T04:12:53.311Z,72.75
2023-04-04T04:15:23.228Z,72.56
2023-04-04T04:17:53.809Z,72.61
2023-04-04T04:20:23.751Z,72.66
2023-04-04T04:22:54.197Z,72.78
2023-04-04T04:25:24.590Z,72.93
2023-04-04T04:27:58.747Z,73.59
2023-04-04T04:30:28.905Z,73.34
2023-04-04T04:32:59.212Z,73.27
2023-04-04T04:35:29.182Z,73.16
2023-04-04T04:37:59.447Z,73.05
2023-04-04T04:40:29.476Z,73.10
2023-04-04T04:43:03.054Z,73.09
2023-04-04T04:45:33.353Z,73.26
2023-04-04T04:48:03.404Z,73.28
2023-04-04T04:50:33.640Z,73.12
2023-04-04T04:53:05.187Z,73.32
2023-04-04T04:55:35.083Z,73.54
2023-04-04T04:58:07.750Z,73.61
2023-04-04T05:00:38.416Z,73.16
2023-04-04T05:03:09.777Z,73.53
2023-04-04T05:05:39.868Z,73.75
2023-04-04T05:08:09.892Z,73.86
2023-04-04T05:10:40.373Z,73.40
2023-04-04T05:13:14.168Z,74.16
2023-04-04T05:15:44.162Z,74.13
2023-04-04T05:18:13.972Z,74.11
2023-04-04T05:20:46.929Z,73.90
2023-04-04T05:23:17.399Z,74.10
2023-04-04T05:25:47.458Z,74.26
2023-04-04T05:28:19.988Z,74.11
2023-04-04T05:30:50.425Z,74.13
2023-04-04T05:33:20.292Z,74.31
2023-04-04T05:35:50.475Z,74.80
2023-04-04T05:38:20.638Z,74.98
2023-04-04T05:40:50.726Z,74.93
2023-04-04T05:43:23.226Z,75.12
2023-04-04T05:45:53.250Z,74.71
2023-04-04T05:48:23.599Z,74.85
2023-04-04T05:50:53.499Z,74.96
2023-04-04T05:53:23.861Z,74.91
2023-04-04T05:55:55.763Z,75.00
2023-04-04T05:58:28.226Z,74.95
2023-04-04T06:01:00.263Z,75.00
2023-04-04T06:03:31.176Z,75.35
2023-04-04T06:06:01.403Z,75.20
2023-04-04T06:08:35.374Z,75.28
2023-04-04T06:11:10.356Z,75.28
2023-04-04T06:13:42.913Z,75.63
2023-04-04T06:16:13.026Z,75.63
2023-04-04T06:18:42.948Z,75.68
2023-04-04T06:21:13.533Z,75.44
2023-04-04T06:23:44.105Z,75.55
2023-04-04T06:26:15.119Z,75.30
2023-04-04T06:28:53.075Z,76.17
2023-04-04T06:31:23.447Z,75.62
2023-04-04T06:33:53.487Z,75.94
2023-04-04T06:36:23.537Z,76.07
2023-04-04T06:38:54.301Z,76.97
2023-04-04T06:41:24.176Z,76.12
2023-04-04T06:43:56.830Z,76.29
2023-04-04T06:46:27.402Z,76.42
2023-04-04T06:48:58.173Z,75.90
2023-04-04T06:51:28.852Z,75.99
2023-04-04T06:53:59.470Z,74.24
2023-04-04T06:56:30.030Z,73.67
2023-04-04T06:59:06.113Z,73.56
2023-04-04T07:01:38.264Z,73.17
2023-04-04T07:04:08.249Z,72.95
2023-04-04T07:06:38.230Z,72.61
2023-04-04T07:09:15.372Z,71.25
2023-04-04T07:11:55.146Z,70.72
2023-04-04T07:14:27.682Z,69.51
2023-04-04T07:16:58.541Z,69.13
2023-04-04T07:19:29.106Z,68.35
2023-04-04T07:22:00.455Z,68.60
2023-04-04T07:24:30.650Z,68.19
2023-04-04T07:27:00.529Z,66.12
2023-04-04T07:29:32.924Z,64.21
2023-04-04T07:32:03.269Z,65.56
2023-04-04T07:34:35.207Z,64.98
2023-04-04T07:37:05.115Z,64.33
2023-04-04T07:39:35.112Z,62.94
2023-04-04T07:42:05.013Z,61.92
2023-04-04T07:44:37.612Z,60.12
2023-04-04T07:47:10.343Z,60.27
2023-04-04T07:49:40.694Z,59.50
2023-04-04T07:52:10.928Z,60.25
2023-04-04T07:54:40.941Z,58.22
2023-04-04T07:57:10.929Z,54.93
2023-04-04T07:59:43.453Z,55.29
2023-04-04T08:02:13.384Z,53.88
2023-04-04T08:04:43.614Z,52.76
2023-04-04T08:07:13.646Z,51.71
2023-04-04T08:09:43.833Z,51.32
2023-04-04T08:12:13.878Z,52.93
2023-04-04T08:14:46.829Z,52.44
2023-04-04T08:17:19.189Z,51.91
2023-04-04T08:19:49.500Z,51.45
2023-04-04T08:22:22.563Z,49.31
2023-04-04T08:24:52.588Z,47.35
2023-04-04T08:27:22.481Z,47.05
2023-04-04T08:29:55.075Z,44.90
2023-04-04T08:32:25.341Z,45.86
2023-04-04T08:34:55.561Z,49.41
2023-04-04T08:37:25.618Z,46.94
2023-04-04T08:39:55.610Z,44.95
2023-04-04T08:42:27.805Z,45.55
2023-04-04T08:45:02.681Z,47.87
2023-04-04T08:47:37.794Z,49.12
2023-04-04T08:50:13.465Z,48.52
2023-04-04T08:52:45.084Z,46.64
2023-04-04T08:55:16.153Z,47.22
2023-04-04T08:57:47.103Z,44.28
2023-04-04T09:00:21.798Z,42.96
2023-04-04T09:02:58.631Z,45.85
2023-04-04T09:05:29.393Z,44.31
2023-04-04T09:07:59.607Z,39.45
2023-04-04T09:10:30.048Z,42.54
2023-04-04T09:13:12.489Z,43.65
2023-04-04T09:15:51.453Z,43.91
2023-04-04T09:18:21.772Z,41.53
2023-04-04T09:20:53.040Z,43.34
2023-04-04T09:23:24.357Z,44.65
2023-04-04T09:26:03.677Z,44.03
2023-04-04T09:28:35.325Z,44.05
2023-04-04T09:31:11.653Z,40.25
2023-04-04T09:33:42.110Z,42.73
2023-04-04T09:36:18.275Z,41.67
2023-04-04T09:38:49.094Z,42.50
2023-04-04T09:41:21.663Z,42.75
2023-04-04T09:43:51.758Z,42.69
2023-04-04T09:46:26.582Z,40.93
2023-04-04T09:48:57.623Z,42.32
2023-04-04T09:51:27.697Z,41.98
2023-04-04T09:53:57.844Z,40.07
2023-04-04T09:56:27.881Z,39.73
2023-04-04T09:59:04.116Z,40.24
2023-04-04T10:01:37.783Z,38.88
2023-04-04T10:04:08.973Z,39.13
2023-04-04T10:06:39.983Z,40.74
2023-04-04T10:09:11.253Z,37.20
2023-04-04T10:11:41.164Z,36.88
2023-04-04T10:14:12.612Z,39.00
2023-04-04T10:16:48.856Z,39.03
2023-04-04T10:19:20.249Z,40.82
2023-04-04T10:21:51.306Z,38.71
2023-04-04T10:24:22.265Z,39.84
2023-04-04T10:26:53.582Z,40.24
2023-04-04T10:29:23.435Z,38.52
2023-04-04T10:32:03.598Z,37.71
2023-04-04T10:34:39.194Z,40.59
2023-04-04T10:37:13.123Z,41.16
2023-04-04T10:39:49.435Z,39.58
2023-04-04T10:42:22.227Z,40.93
2023-04-04T10:44:54.075Z,38.01
2023-04-04T10:47:29.712Z,37.23
2023-04-04T10:50:00.471Z,38.33
2023-04-04T10:52:34.101Z,37.23
2023-04-04T10:55:07.802Z,38.04
2023-04-04T10:57:42.211Z,39.28
2023-04-04T11:00:14.766Z,35.12
2023-04-04T11:02:57.037Z,36.71
2023-04-04T11:05:29.022Z,39.57
2023-04-04T11:08:07.717Z,37.65
2023-04-04T11:10:39.997Z,37.35
2023-04-04T11:13:14.517Z,36.53
2023-04-04T11:15:59.064Z,36.95
2023-04-04T11:18:51.083Z,36.99
2023-04-04T11:21:24.269Z,37.51
2023-04-04T11:24:19.270Z,37.61
2023-04-04T11:26:50.008Z,38.66
2023-04-04T11:29:56.089Z,33.86
2023-04-04T11:32:59.793Z,33.58
2023-04-04T11:35:37.390Z,36.29
2023-04-04T11:38:07.654Z,35.95
2023-04-04T11:40:39.336Z,37.30
2023-04-04T11:43:14.027Z,36.88
2023-04-04T11:45:48.300Z,36.53
2023-04-04T11:48:20.607Z,37.16
2023-04-04T11:50:53.220Z,35.62
2023-04-04T11:53:23.163Z,34.78
2023-04-04T11:55:56.860Z,35.89
2023-04-04T11:58:27.137Z,37.57
2023-04-04T12:00:57.122Z,35.82
2023-04-04T12:03:27.061Z,36.26
2023-04-04T12:06:00.652Z,36.09
2023-04-04T12:08:31.853Z,36.17
2023-04-04T12:11:07.482Z,36.72
2023-04-04T12:13:37.520Z,36.34
2023-04-04T12:16:08.285Z,37.61
2023-04-04T12:18:38.144Z,36.60
2023-04-04T12:21:10.877Z,38.07
2023-04-04T12:23:40.894Z,36.05
2023-04-04T12:26:11.668Z,37.25
2023-04-04T12:28:42.424Z,35.98
2023-04-04T12:31:12.805Z,37.39
2023-04-04T12:33:44.508Z,35.97
2023-04-04T12:36:17.283Z,35.82
2023-04-04T12:39:01.164Z,33.58
2023-04-04T12:41:31.814Z,36.03
2023-04-04T12:44:05.813Z,37.40
2023-04-04T12:46:40.038Z,36.42
2023-04-04T12:49:11.187Z,36.51
2023-04-04T12:51:44.275Z,35.05
2023-04-04T12:54:29.322Z,33.57
2023-04-04T12:57:00.072Z,34.31
2023-04-04T12:59:32.426Z,35.35
2023-04-04T13:02:04.105Z,34.80
2023-04-04T13:04:35.182Z,35.15
2023-04-04T13:07:07.796Z,35.32
2023-04-04T13:09:37.912Z,35.27
2023-04-04T13:12:10.322Z,34.66
2023-04-04T13:15:06.937Z,35.83
2023-04-04T13:17:46.270Z,34.14
2023-04-04T13:20:17.848Z,36.93
2023-04-04T13:22:50.613Z,37.71
2023-04-04T13:25:20.537Z,37.27
2023-04-04T13:27:50.745Z,36.85
2023-04-04T13:30:20.798Z,32.68
2023-04-04T13:32:50.963Z,34.99
2023-04-04T13:35:21.269Z,35.34
2023-04-04T13:37:54.097Z,35.16
2023-04-04T13:40:24.084Z,33.80
2023-04-04T13:42:54.236Z,34.78
2023-04-04T13:45:24.408Z,34.39
2023-04-04T13:47:54.464Z,34.20
2023-04-04T13:50:24.484Z,35.94
2023-04-04T13:52:57.039Z,34.11
2023-04-04T13:55:27.009Z,33.09
2023-04-04T13:57:57.041Z,34.35
2023-04-04T14:00:28.757Z,33.83
2023-04-04T14:02:59.461Z,34.18
2023-04-04T14:05:29.606Z,35.13
2023-04-04T14:08:02.625Z,34.51
2023-04-04T14:10:32.812Z,35.49
2023-04-04T14:13:02.718Z,35.65
2023-04-04T14:15:33.472Z,34.76
2023-04-04T14:18:03.581Z,34.51
2023-04-04T14:20:34.709Z,34.00
2023-04-04T14:23:12.160Z,31.53
2023-04-04T14:25:43.210Z,34.56
2023-04-04T14:28:13.288Z,35.69
2023-04-04T14:30:43.243Z,35.28
2023-04-04T14:33:13.346Z,34.29
2023-04-04T14:35:43.766Z,34.08
2023-04-04T14:38:16.661Z,33.70
2023-04-04T14:40:46.568Z,34.12
2023-04-04T14:43:19.097Z,33.23
2023-04-04T14:45:49.044Z,34.48
2023-04-04T14:48:18.941Z,34.53
2023-04-04T14:50:49.718Z,34.96
2023-04-04T14:53:23.051Z,32.19
2023-04-04T14:55:55.906Z,32.60
2023-04-04T14:58:28.642Z,35.36
2023-04-04T15:00:58.756Z,35.76
2023-04-04T15:03:29.346Z,35.07
2023-04-04T15:05:59.662Z,34.57
2023-04-04T15:08:32.411Z,34.96
2023-04-04T15:11:03.831Z,34.14
2023-04-04T15:13:33.728Z,34.57
2023-04-04T15:16:04.496Z,33.79
2023-04-04T15:18:34.472Z,33.99
2023-04-04T15:21:04.495Z,34.04
2023-04-04T15:23:37.161Z,34.03
2023-04-04T15:26:07.203Z,35.03
2023-04-04T15:28:37.295Z,35.44
2023-04-04T15:31:08.465Z,35.62
2023-04-04T15:33:38.685Z,37.07
2023-04-04T15:36:08.961Z,36.10
2023-04-04T15:38:42.411Z,34.07
2023-04-04T15:41:13.279Z,33.63
2023-04-04T15:43:43.097Z,35.32
2023-04-04T15:46:13.456Z,34.98
2023-04-04T15:48:43.468Z,34.94
2023-04-04T15:51:13.475Z,34.67
2023-04-04T15:53:46.106Z,34.75
2023-04-04T15:56:16.866Z,33.77
2023-04-04T15:58:46.794Z,34.32
2023-04-04T16:01:16.953Z,35.21
2023-04-04T16:03:47.251Z,35.21
2023-04-04T16:06:17.133Z,34.95
2023-04-04T16:08:49.754Z,34.84
2023-04-04T16:11:22.030Z,36.02
2023-04-04T16:13:51.988Z,35.42
2023-04-04T16:16:21.961Z,35.68
2023-04-04T16:18:51.952Z,35.92
2023-04-04T16:21:21.915Z,36.55
2023-04-04T16:23:55.783Z,35.74
2023-04-04T16:26:25.810Z,36.25
2023-04-04T16:28:55.984Z,36.54
2023-04-04T16:31:25.946Z,36.92
2023-04-04T16:33:55.853Z,37.44
2023-04-04T16:36:26.081Z,36.80
2023-04-04T16:38:59.604Z,37.14
2023-04-04T16:41:29.883Z,37.30
2023-04-04T16:43:59.887Z,37.54
2023-04-04T16:46:30.427Z,37.97
2023-04-04T16:49:00.572Z,37.76
2023-04-04T16:51:32.231Z,37.26
2023-04-04T16:54:04.698Z,38.70
2023-04-04T16:56:34.598Z,38.30
2023-04-04T16:59:04.500Z,38.53
2023-04-04T17:01:34.673Z,38.84
2023-04-04T17:04:04.941Z,37.00
2023-04-04T17:06:34.861Z,36.31
2023-04-04T17:09:08.246Z,38.07
2023-04-04T17:11:39.709Z,38.26
2023-04-04T17:14:09.896Z,38.98
2023-04-04T17:16:40.007Z,39.04
2023-04-04T17:19:09.832Z,39.22
2023-04-04T17:21:39.675Z,39.51
2023-04-04T17:24:12.243Z,39.69
2023-04-04T17:26:42.249Z,39.62
2023-04-04T17:29:12.108Z,39.86
2023-04-04T17:31:43.623Z,40.15
2023-04-04T17:34:15.246Z,40.47
2023-04-04T17:36:45.253Z,40.59
2023-04-04T17:39:17.964Z,40.40
2023-04-04T17:41:48.640Z,40.25
2023-04-04T17:44:18.940Z,40.95
2023-04-04T17:46:49.064Z,41.38
2023-04-04T17:49:20.498Z,41.31
2023-04-04T17:51:51.010Z,41.03
2023-04-04T17:54:23.972Z,41.78
2023-04-04T17:56:54.058Z,41.94
2023-04-04T17:59:24.542Z,42.13
2023-04-04T18:01:54.465Z,42.49
2023-04-04T18:04:28.390Z,42.49
2023-04-04T18:06:58.248Z,42.47
2023-04-04T18:09:31.420Z,42.36
2023-04-04T18:12:02.714Z,42.93
2023-04-04T18:14:32.770Z,43.41
2023-04-04T18:17:02.738Z,43.39
2023-04-04T18:19:32.718Z,43.56
2023-04-04T18:22:02.886Z,43.98
2023-04-04T18:24:35.330Z,43.96
2023-04-04T18:27:05.343Z,44.10
2023-04-04T18:29:35.319Z,44.54
2023-04-04T18:32:05.319Z,44.62
2023-04-04T18:34:36.411Z,44.65
2023-04-04T18:37:06.888Z,44.95
2023-04-04T18:39:39.629Z,45.36
2023-04-04T18:42:10.784Z,45.55
2023-04-04T18:44:40.820Z,45.31
2023-04-04T18:47:11.982Z,45.37
2023-04-04T18:49:42.199Z,45.47
2023-04-04T18:52:12.185Z,45.52
2023-04-04T18:54:45.280Z,45.63
2023-04-04T18:57:16.586Z,45.79
2023-04-04T18:59:46.616Z,46.01
2023-04-04T19:02:16.812Z,46.13
2023-04-04T19:04:46.856Z,46.28
2023-04-04T19:07:22.242Z,46.70
2023-04-04T19:09:54.939Z,46.83
2023-04-04T19:12:24.875Z,46.75
2023-04-04T19:14:54.886Z,46.84
2023-04-04T19:17:24.741Z,47.21
2023-04-04T19:19:55.151Z,47.13
2023-04-04T19:22:24.999Z,47.43
2023-04-04T19:24:57.540Z,48.12
2023-04-04T19:27:27.430Z,48.12
2023-04-04T19:29:57.603Z,48.56
2023-04-04T19:32:30.647Z,48.76
2023-04-04T19:35:01.113Z,48.69
2023-04-04T19:37:30.910Z,48.85
2023-04-04T19:40:03.708Z,49.09
2023-04-04T19:42:33.618Z,49.10
2023-04-04T19:45:04.124Z,49.04
2023-04-04T19:47:34.093Z,49.34
2023-04-04T19:50:04.065Z,49.25
2023-04-04T19:52:34.022Z,49.25
2023-04-04T19:55:12.200Z,50.36
2023-04-04T19:57:42.221Z,49.79
2023-04-04T20:00:19.475Z,49.91
2023-04-04T20:03:01.940Z,50.79
2023-04-04T20:06:04.806Z,51.57
2023-04-04T20:08:39.954Z,50.80
2023-04-04T20:11:13.376Z,50.76
2023-04-04T20:13:44.238Z,50.44
2023-04-04T20:16:15.962Z,50.84
2023-04-04T20:18:47.670Z,51.28
2023-04-04T20:21:19.104Z,51.28
2023-04-04T20:23:54.880Z,52.36
2023-04-04T20:26:55.643Z,52.97
2023-04-04T20:29:28.845Z,51.92
2023-04-04T20:32:00.824Z,52.23
2023-04-04T20:34:42.945Z,53.94
2023-04-04T20:37:16.351Z,53.01
2023-04-04T20:39:51.065Z,53.32
2023-04-04T20:42:40.583Z,54.61
2023-04-04T20:45:41.332Z,52.83
2023-04-04T20:48:11.780Z,53.17
2023-04-04T20:50:48.611Z,53.34
2023-04-04T20:53:27.627Z,52.96
2023-04-04T20:55:58.008Z,53.12
2023-04-04T20:58:34.334Z,53.52
2023-04-04T21:01:04.453Z,53.24
2023-04-04T21:03:37.271Z,53.46
2023-04-04T21:06:16.664Z,53.93
2023-04-04T21:08:48.846Z,53.46
2023-04-04T21:11:27.489Z,53.87
2023-04-04T21:14:00.499Z,53.53
2023-04-04T21:16:30.986Z,53.55
2023-04-04T21:19:02.696Z,53.78
2023-04-04T21:21:32.778Z,53.94
2023-04-04T21:24:03.900Z,53.96
2023-04-04T21:26:36.696Z,54.42
2023-04-04T21:29:11.650Z,54.53
2023-04-04T21:31:43.533Z,54.18
2023-04-04T21:34:16.280Z,54.45
2023-04-04T21:36:47.265Z,54.62
2023-04-04T21:39:18.475Z,55.12
2023-04-04T21:41:48.890Z,55.33
2023-04-04T21:44:21.794Z,55.62
2023-04-04T21:46:51.686Z,55.79
2023-04-04T21:49:21.506Z,56.03
2023-04-04T21:51:51.311Z,56.12
2023-04-04T21:54:21.326Z,56.30
2023-04-04T21:56:51.233Z,56.16
2023-04-04T21:59:23.756Z,56.31
2023-04-04T22:01:53.662Z,56.44
2023-04-04T22:04:23.612Z,56.52
2023-04-04T22:06:53.914Z,56.46
2023-04-04T22:09:25.932Z,56.45
2023-04-04T22:11:59.190Z,56.35
2023-04-04T22:14:33.401Z,56.72
2023-04-04T22:17:03.297Z,56.20
2023-04-04T22:19:43.001Z,56.33
2023-04-04T22:22:13.818Z,56.26
2023-04-04T22:24:44.962Z,56.45
2023-04-04T22:27:15.210Z,56.70
2023-04-04T22:29:47.866Z,56.58
2023-04-04T22:32:17.769Z,56.54
2023-04-04T22:34:47.669Z,56.81
2023-04-04T22:37:19.985Z,56.78
2023-04-04T22:39:50.104Z,57.07
2023-04-04T22:42:20.116Z,56.90
2023-04-04T22:44:52.975Z,57.14
2023-04-04T22:47:23.158Z,57.39
2023-04-04T22:49:53.120Z,57.33
2023-04-04T22:52:23.025Z,57.71
2023-04-04T22:54:52.879Z,57.42
2023-04-04T22:57:25.136Z,57.72
2023-04-04T22:59:57.817Z,57.83
2023-04-04T23:02:27.860Z,57.67
2023-04-04T23:04:58.702Z,57.68
2023-04-04T23:07:29.440Z,57.68
2023-04-04T23:09:59.425Z,57.89
2023-04-04T23:12:32.342Z,58.21
2023-04-04T23:15:05.584Z,58.62
2023-04-04T23:17:36.396Z,58.65
2023-04-04T23:20:09.548Z,58.55
2023-04-04T23:22:40.201Z,58.89
2023-04-04T23:25:10.626Z,58.81
2023-04-04T23:27:40.670Z,59.11
2023-04-04T23:30:14.621Z,59.18
2023-04-04T23:32:44.483Z,59.03
2023-04-04T23:35:14.527Z,59.02
2023-04-04T23:37:44.400Z,59.10
2023-04-04T23:40:15.163Z,59.18
2023-04-04T23:42:45.135Z,59.30
2023-04-04T23:45:19.466Z,59.50
2023-04-04T23:47:49.371Z,59.47
2023-04-04T23:50:20.560Z,59.50
2023-04-04T23:52:50.552Z,59.54
2023-04-04T23:55:20.552Z,59.62
2023-04-04T23:57:50.554Z,59.50
